sensor_id;sensor_type;location;lat;lon;timestamp;pressure;altitude;pressure_sealevel;temperature;humidity
84147;BME280;74267;50.434;7.398;2023-11-21T00:00:21;100147.19;;;9.93;92.08
84147;BME280;74267;50.434;7.398;2023-11-21T00:02:46;100154.00;;;10.07;90.99
84147;BME280;74267;50.434;7.398;2023-11-21T00:05:13;100147.94;;;10.00;90.82
84147;BME280;74267;50.434;7.398;2023-11-21T00:07:39;100149.63;;;9.88;92.11
84147;BME280;74267;50.434;7.398;2023-11-21T00:10:05;100151.22;;;9.89;91.78
84147;BME280;74267;50.434;7.398;2023-11-21T00:12:32;100153.91;;;9.82;91.66
84147;BME280;74267;50.434;7.398;2023-11-21T00:14:58;100153.00;;;9.64;92.15
84147;BME280;74267;50.434;7.398;2023-11-21T00:17:24;100154.59;;;9.65;92.38
84147;BME280;74267;50.434;7.398;2023-11-21T00:19:49;100156.28;;;9.53;92.17
84147;BME280;74267;50.434;7.398;2023-11-21T00:22:15;100161.28;;;9.61;92.75
84147;BME280;74267;50.434;7.398;2023-11-21T00:24:41;100155.84;;;9.62;91.86
84147;BME280;74267;50.434;7.398;2023-11-21T00:27:06;100159.91;;;9.52;92.00
84147;BME280;74267;50.434;7.398;2023-11-21T00:29:31;100156.69;;;9.50;92.14
84147;BME280;74267;50.434;7.398;2023-11-21T00:31:57;100167.22;;;9.43;92.33
84147;BME280;74267;50.434;7.398;2023-11-21T00:34:23;100171.44;;;9.44;92.62
84147;BME280;74267;50.434;7.398;2023-11-21T00:36:48;100171.25;;;9.46;92.62
84147;BME280;74267;50.434;7.398;2023-11-21T00:39:14;100174.69;;;9.46;92.44
84147;BME280;74267;50.434;7.398;2023-11-21T00:41:39;100172.09;;;9.40;92.57
84147;BME280;74267;50.434;7.398;2023-11-21T00:44:04;100180.34;;;9.50;92.14
84147;BME280;74267;50.434;7.398;2023-11-21T00:46:31;100171.69;;;9.43;92.98
84147;BME280;74267;50.434;7.398;2023-11-21T00:48:57;100171.69;;;9.43;92.32
84147;BME280;74267;50.434;7.398;2023-11-21T00:51:22;100180.56;;;9.42;92.40
84147;BME280;74267;50.434;7.398;2023-11-21T00:53:48;100183.03;;;9.37;92.59
84147;BME280;74267;50.434;7.398;2023-11-21T00:56:13;100184.63;;;9.38;92.67
84147;BME280;74267;50.434;7.398;2023-11-21T00:58:40;100181.78;;;9.39;92.34
84147;BME280;74267;50.434;7.398;2023-11-21T01:01:09;100188.28;;;9.37;92.87
84147;BME280;74267;50.434;7.398;2023-11-21T01:03:34;100192.72;;;9.36;92.42
84147;BME280;74267;50.434;7.398;2023-11-21T01:05:59;100197.19;;;9.29;93.01
84147;BME280;74267;50.434;7.398;2023-11-21T01:08:25;100195.56;;;9.28;92.95
84147;BME280;74267;50.434;7.398;2023-11-21T01:10:50;100197.59;;;9.33;92.50
84147;BME280;74267;50.434;7.398;2023-11-21T01:13:15;100215.38;;;9.31;93.05
84147;BME280;74267;50.434;7.398;2023-11-21T01:15:41;100215.97;;;9.33;93.29
84147;BME280;74267;50.434;7.398;2023-11-21T01:18:07;100211.72;;;9.32;92.92
84147;BME280;74267;50.434;7.398;2023-11-21T01:20:34;100216.19;;;9.25;93.58
84147;BME280;74267;50.434;7.398;2023-11-21T01:22:59;100219.00;;;9.30;93.26
84147;BME280;74267;50.434;7.398;2023-11-21T01:25:24;100217.78;;;9.26;93.40
84147;BME280;74267;50.434;7.398;2023-11-21T01:27:51;100220.63;;;9.24;93.87
84147;BME280;74267;50.434;7.398;2023-11-21T01:30:17;100222.44;;;9.24;92.64
84147;BME280;74267;50.434;7.398;2023-11-21T01:32:42;100229.53;;;9.30;92.70
84147;BME280;74267;50.434;7.398;2023-11-21T01:35:09;100231.75;;;9.33;92.33
84147;BME280;74267;50.434;7.398;2023-11-21T01:37:36;100236.38;;;9.31;92.32
84147;BME280;74267;50.434;7.398;2023-11-21T01:40:02;100231.53;;;9.28;92.78
84147;BME280;74267;50.434;7.398;2023-11-21T01:42:30;100234.78;;;9.23;93.07
84147;BME280;74267;50.434;7.398;2023-11-21T01:44:55;100240.22;;;9.22;92.97
84147;BME280;74267;50.434;7.398;2023-11-21T01:47:20;100240.84;;;9.24;93.32
84147;BME280;74267;50.434;7.398;2023-11-21T01:49:46;100235.78;;;9.16;93.16
84147;BME280;74267;50.434;7.398;2023-11-21T01:52:12;100239.66;;;9.20;93.24
84147;BME280;74267;50.434;7.398;2023-11-21T01:54:38;100234.38;;;9.20;93.58
84147;BME280;74267;50.434;7.398;2023-11-21T01:57:04;100239.22;;;9.23;93.04
84147;BME280;74267;50.434;7.398;2023-11-21T01:59:35;100250.94;;;9.20;93.27
84147;BME280;74267;50.434;7.398;2023-11-21T02:02:05;100246.09;;;9.24;92.91
84147;BME280;74267;50.434;7.398;2023-11-21T02:04:32;100249.72;;;9.29;93.36
84147;BME280;74267;50.434;7.398;2023-11-21T02:06:58;100251.31;;;9.37;92.31
84147;BME280;74267;50.434;7.398;2023-11-21T02:09:26;100251.31;;;9.37;92.41
84147;BME280;74267;50.434;7.398;2023-11-21T02:11:53;100242.84;;;9.35;92.47
84147;BME280;74267;50.434;7.398;2023-11-21T02:14:19;100247.72;;;9.31;92.47
84147;BME280;74267;50.434;7.398;2023-11-21T02:16:47;100259.41;;;9.29;92.86
84147;BME280;74267;50.434;7.398;2023-11-21T02:19:20;100257.81;;;9.28;93.05
84147;BME280;74267;50.434;7.398;2023-11-21T02:21:49;100252.13;;;9.31;92.76
84147;BME280;74267;50.434;7.398;2023-11-21T02:24:16;100258.00;;;9.33;92.71
84147;BME280;74267;50.434;7.398;2023-11-21T02:26:43;100254.56;;;9.26;93.14
84147;BME280;74267;50.434;7.398;2023-11-21T02:29:08;100270.72;;;9.36;92.56
84147;BME280;74267;50.434;7.398;2023-11-21T02:31:37;100264.47;;;9.37;92.64
84147;BME280;74267;50.434;7.398;2023-11-21T02:34:10;100271.97;;;9.27;93.05
84147;BME280;74267;50.434;7.398;2023-11-21T02:36:38;100272.13;;;9.32;92.58
84147;BME280;74267;50.434;7.398;2023-11-21T02:39:03;100279.03;;;9.33;93.01
84147;BME280;74267;50.434;7.398;2023-11-21T02:41:29;100262.06;;;9.22;91.81
84147;BME280;74267;50.434;7.398;2023-11-21T02:43:54;100277.63;;;9.24;92.77
84147;BME280;74267;50.434;7.398;2023-11-21T02:46:19;100268.31;;;9.28;93.09
84147;BME280;74267;50.434;7.398;2023-11-21T02:48:45;100273.94;;;9.38;92.36
84147;BME280;74267;50.434;7.398;2023-11-21T02:51:10;100274.16;;;9.43;92.18
84147;BME280;74267;50.434;7.398;2023-11-21T02:53:35;100284.06;;;9.41;92.43
84147;BME280;74267;50.434;7.398;2023-11-21T02:56:00;100284.88;;;9.35;92.77
84147;BME280;74267;50.434;7.398;2023-11-21T02:58:26;100285.88;;;9.34;92.74
84147;BME280;74267;50.434;7.398;2023-11-21T03:00:51;100285.69;;;9.29;93.03
84147;BME280;74267;50.434;7.398;2023-11-21T03:03:17;100288.91;;;9.31;93.21
84147;BME280;74267;50.434;7.398;2023-11-21T03:05:42;100275.56;;;9.26;92.90
84147;BME280;74267;50.434;7.398;2023-11-21T03:08:08;100284.47;;;9.25;93.16
84147;BME280;74267;50.434;7.398;2023-11-21T03:10:33;100287.72;;;9.27;93.33
84147;BME280;74267;50.434;7.398;2023-11-21T03:12:58;100284.06;;;9.28;93.49
84147;BME280;74267;50.434;7.398;2023-11-21T03:15:24;100285.69;;;9.35;92.67
84147;BME280;74267;50.434;7.398;2023-11-21T03:17:49;100296.16;;;9.42;92.71
84147;BME280;74267;50.434;7.398;2023-11-21T03:20:15;100290.34;;;9.27;92.68
84147;BME280;74267;50.434;7.398;2023-11-21T03:22:41;100292.56;;;9.30;92.94
84147;BME280;74267;50.434;7.398;2023-11-21T03:25:07;100303.28;;;9.28;92.91
84147;BME280;74267;50.434;7.398;2023-11-21T03:27:35;100299.22;;;9.32;92.61
84147;BME280;74267;50.434;7.398;2023-11-21T03:30:01;100303.88;;;9.37;92.75
84147;BME280;74267;50.434;7.398;2023-11-21T03:32:28;100302.25;;;9.36;93.42
84147;BME280;74267;50.434;7.398;2023-11-21T03:34:57;100307.94;;;9.33;92.38
84147;BME280;74267;50.434;7.398;2023-11-21T03:37:24;100311.75;;;9.37;92.41
84147;BME280;74267;50.434;7.398;2023-11-21T03:39:50;100309.53;;;9.34;92.51
84147;BME280;74267;50.434;7.398;2023-11-21T03:42:15;100309.50;;;9.40;92.14
84147;BME280;74267;50.434;7.398;2023-11-21T03:44:41;100311.94;;;9.42;92.07
84147;BME280;74267;50.434;7.398;2023-11-21T03:47:06;100315.59;;;9.41;92.11
84147;BME280;74267;50.434;7.398;2023-11-21T03:49:31;100320.84;;;9.41;92.30
84147;BME280;74267;50.434;7.398;2023-11-21T03:51:57;100320.63;;;9.36;92.36
84147;BME280;74267;50.434;7.398;2023-11-21T03:54:22;100319.03;;;9.35;92.93
84147;BME280;74267;50.434;7.398;2023-11-21T03:56:47;100320.22;;;9.26;92.61
84147;BME280;74267;50.434;7.398;2023-11-21T03:59:13;100326.91;;;9.35;91.95
84147;BME280;74267;50.434;7.398;2023-11-21T04:01:38;100328.94;;;9.33;92.64
84147;BME280;74267;50.434;7.398;2023-11-21T04:04:03;100332.97;;;9.29;92.43
84147;BME280;74267;50.434;7.398;2023-11-21T04:06:29;100340.25;;;9.33;92.55
84147;BME280;74267;50.434;7.398;2023-11-21T04:08:55;100344.69;;;9.33;92.47
84147;BME280;74267;50.434;7.398;2023-11-21T04:11:20;100340.84;;;9.29;92.65
84147;BME280;74267;50.434;7.398;2023-11-21T04:13:45;100341.84;;;9.34;92.58
84147;BME280;74267;50.434;7.398;2023-11-21T04:16:12;100329.34;;;9.30;91.85
84147;BME280;74267;50.434;7.398;2023-11-21T04:18:38;100347.91;;;9.35;91.88
84147;BME280;74267;50.434;7.398;2023-11-21T04:21:07;100347.72;;;9.30;92.33
84147;BME280;74267;50.434;7.398;2023-11-21T04:23:33;100345.50;;;9.20;92.36
84147;BME280;74267;50.434;7.398;2023-11-21T04:25:58;100356.59;;;9.29;92.34
84147;BME280;74267;50.434;7.398;2023-11-21T04:28:24;100354.38;;;9.26;92.74
84147;BME280;74267;50.434;7.398;2023-11-21T04:30:50;100357.44;;;9.23;92.53
84147;BME280;74267;50.434;7.398;2023-11-21T04:33:15;100358.81;;;9.19;93.22
84147;BME280;74267;50.434;7.398;2023-11-21T04:35:41;100361.47;;;9.25;93.16
84147;BME280;74267;50.434;7.398;2023-11-21T04:38:07;100368.34;;;9.20;93.57
84147;BME280;74267;50.434;7.398;2023-11-21T04:40:32;100364.06;;;9.19;92.82
84147;BME280;74267;50.434;7.398;2023-11-21T04:42:57;100374.19;;;9.22;92.34
84147;BME280;74267;50.434;7.398;2023-11-21T04:45:23;100371.75;;;9.20;92.55
84147;BME280;74267;50.434;7.398;2023-11-21T04:47:48;100381.06;;;9.16;92.57
84147;BME280;74267;50.434;7.398;2023-11-21T04:50:14;100390.53;;;9.17;92.51
84147;BME280;74267;50.434;7.398;2023-11-21T04:52:39;100388.97;;;9.23;92.54
84147;BME280;74267;50.434;7.398;2023-11-21T04:55:05;100391.97;;;9.13;92.85
84147;BME280;74267;50.434;7.398;2023-11-21T04:57:32;100397.63;;;9.17;92.63
84147;BME280;74267;50.434;7.398;2023-11-21T04:59:57;100402.66;;;9.12;93.03
84147;BME280;74267;50.434;7.398;2023-11-21T05:02:22;100403.06;;;9.09;92.80
84147;BME280;74267;50.434;7.398;2023-11-21T05:04:48;100412.97;;;9.13;93.36
84147;BME280;74267;50.434;7.398;2023-11-21T05:07:14;100405.47;;;9.10;92.70
84147;BME280;74267;50.434;7.398;2023-11-21T05:09:43;100407.31;;;9.10;92.91
84147;BME280;74267;50.434;7.398;2023-11-21T05:12:14;100413.38;;;9.10;92.18
84147;BME280;74267;50.434;7.398;2023-11-21T05:14:39;100409.31;;;9.08;92.54
84147;BME280;74267;50.434;7.398;2023-11-21T05:17:05;100418.22;;;9.07;92.57
84147;BME280;74267;50.434;7.398;2023-11-21T05:19:30;100407.31;;;9.10;92.49
84147;BME280;74267;50.434;7.398;2023-11-21T05:21:57;100412.56;;;9.10;91.99
84147;BME280;74267;50.434;7.398;2023-11-21T05:24:24;100412.56;;;9.10;92.16
84147;BME280;74267;50.434;7.398;2023-11-21T05:26:49;100406.09;;;9.06;92.66
84147;BME280;74267;50.434;7.398;2023-11-21T05:29:14;100419.84;;;9.08;92.59
84147;BME280;74267;50.434;7.398;2023-11-21T05:31:39;100422.84;;;9.05;92.51
84147;BME280;74267;50.434;7.398;2023-11-21T05:34:05;100425.28;;;9.00;91.92
84147;BME280;74267;50.434;7.398;2023-11-21T05:36:30;100429.50;;;9.01;92.21
84147;BME280;74267;50.434;7.398;2023-11-21T05:38:56;100424.66;;;8.98;92.64
84147;BME280;74267;50.434;7.398;2023-11-21T05:41:21;100428.06;;;8.92;92.77
84147;BME280;74267;50.434;7.398;2023-11-21T05:43:46;100442.84;;;9.06;92.26
84147;BME280;74267;50.434;7.398;2023-11-21T05:46:12;100426.25;;;8.99;92.58
84147;BME280;74267;50.434;7.398;2023-11-21T05:48:38;100437.59;;;9.06;92.43
84147;BME280;74267;50.434;7.398;2023-11-21T05:51:06;100440.03;;;9.01;92.17
84147;BME280;74267;50.434;7.398;2023-11-21T05:53:31;100444.06;;;8.97;92.71
84147;BME280;74267;50.434;7.398;2023-11-21T05:55:56;100440.03;;;9.01;92.38
84147;BME280;74267;50.434;7.398;2023-11-21T05:58:22;100438.81;;;9.03;92.51
84147;BME280;74267;50.434;7.398;2023-11-21T06:00:48;100438.41;;;9.06;92.49
84147;BME280;74267;50.434;7.398;2023-11-21T06:03:13;100449.69;;;8.94;92.64
84147;BME280;74267;50.434;7.398;2023-11-21T06:05:38;100447.28;;;8.92;92.32
84147;BME280;74267;50.434;7.398;2023-11-21T06:08:04;100450.28;;;8.89;92.50
84147;BME280;74267;50.434;7.398;2023-11-21T06:10:29;100456.94;;;8.92;92.72
84147;BME280;74267;50.434;7.398;2023-11-21T06:12:55;100458.97;;;8.90;92.87
84147;BME280;74267;50.434;7.398;2023-11-21T06:15:20;100461.56;;;8.83;92.92
84147;BME280;74267;50.434;7.398;2023-11-21T06:17:47;100465.41;;;8.81;92.95
84147;BME280;74267;50.434;7.398;2023-11-21T06:20:17;100469.25;;;8.85;93.13
84147;BME280;74267;50.434;7.398;2023-11-21T06:22:44;100471.88;;;8.85;93.34
84147;BME280;74267;50.434;7.398;2023-11-21T06:25:11;100467.66;;;8.90;92.67
84147;BME280;74267;50.434;7.398;2023-11-21T06:27:40;100472.69;;;8.92;92.64
84147;BME280;74267;50.434;7.398;2023-11-21T06:30:06;100476.34;;;8.91;92.88
84147;BME280;74267;50.434;7.398;2023-11-21T06:32:34;100487.22;;;8.88;92.91
84147;BME280;74267;50.434;7.398;2023-11-21T06:35:01;100488.84;;;8.89;92.66
84147;BME280;74267;50.434;7.398;2023-11-21T06:37:27;100495.75;;;8.90;93.16
84147;BME280;74267;50.434;7.398;2023-11-21T06:39:52;100503.81;;;8.95;93.15
84147;BME280;74267;50.434;7.398;2023-11-21T06:42:18;100504.59;;;8.89;93.18
84147;BME280;74267;50.434;7.398;2023-11-21T06:44:47;100504.59;;;8.89;92.91
84147;BME280;74267;50.434;7.398;2023-11-21T06:47:13;100510.28;;;8.99;93.11
84147;BME280;74267;50.434;7.398;2023-11-21T06:49:38;100514.38;;;9.08;91.87
84147;BME280;74267;50.434;7.398;2023-11-21T06:52:04;100517.19;;;9.06;92.42
84147;BME280;74267;50.434;7.398;2023-11-21T06:54:32;100522.06;;;9.16;92.17
84147;BME280;74267;50.434;7.398;2023-11-21T06:56:58;100532.38;;;9.11;92.71
84147;BME280;74267;50.434;7.398;2023-11-21T06:59:23;100535.81;;;9.11;92.79
84147;BME280;74267;50.434;7.398;2023-11-21T07:01:49;100533.00;;;9.13;92.29
84147;BME280;74267;50.434;7.398;2023-11-21T07:04:15;100537.81;;;9.03;92.61
84147;BME280;74267;50.434;7.398;2023-11-21T07:06:40;100538.00;;;9.08;92.30
84147;BME280;74267;50.434;7.398;2023-11-21T07:09:06;100539.84;;;9.14;92.40
84147;BME280;74267;50.434;7.398;2023-11-21T07:11:33;100550.31;;;9.07;92.50
84147;BME280;74267;50.434;7.398;2023-11-21T07:13:59;100558.44;;;9.19;91.75
84147;BME280;74267;50.434;7.398;2023-11-21T07:16:24;100557.22;;;9.15;92.11
84147;BME280;74267;50.434;7.398;2023-11-21T07:18:50;100562.72;;;9.20;92.05
84147;BME280;74267;50.434;7.398;2023-11-21T07:21:16;100568.75;;;9.20;91.84
84147;BME280;74267;50.434;7.398;2023-11-21T07:23:41;100574.84;;;9.21;92.16
84147;BME280;74267;50.434;7.398;2023-11-21T07:26:06;100582.47;;;9.16;91.96
84147;BME280;74267;50.434;7.398;2023-11-21T07:28:34;100588.34;;;9.18;91.95
84147;BME280;74267;50.434;7.398;2023-11-21T07:31:00;100598.88;;;9.18;91.50
84147;BME280;74267;50.434;7.398;2023-11-21T07:33:26;100596.63;;;9.15;92.57
84147;BME280;74267;50.434;7.398;2023-11-21T07:35:51;100602.50;;;9.17;91.63
84147;BME280;74267;50.434;7.398;2023-11-21T07:38:17;100602.84;;;9.07;92.05
84147;BME280;74267;50.434;7.398;2023-11-21T07:40:43;100607.75;;;9.17;91.61
84147;BME280;74267;50.434;7.398;2023-11-21T07:43:08;100608.16;;;9.20;91.24
84147;BME280;74267;50.434;7.398;2023-11-21T07:45:34;100614.81;;;9.16;91.73
84147;BME280;74267;50.434;7.398;2023-11-21T07:47:59;100621.88;;;9.16;91.64
84147;BME280;74267;50.434;7.398;2023-11-21T07:50:26;100621.94;;;9.29;90.89
84147;BME280;74267;50.434;7.398;2023-11-21T07:52:52;100619.09;;;9.24;90.80
84147;BME280;74267;50.434;7.398;2023-11-21T07:55:19;100635.25;;;9.21;91.35
84147;BME280;74267;50.434;7.398;2023-11-21T07:57:45;100633.25;;;9.23;91.42
84147;BME280;74267;50.434;7.398;2023-11-21T08:00:10;100638.53;;;9.29;90.75
84147;BME280;74267;50.434;7.398;2023-11-21T08:02:38;100645.38;;;9.24;91.24
84147;BME280;74267;50.434;7.398;2023-11-21T08:05:04;100655.09;;;9.30;90.88
84147;BME280;74267;50.434;7.398;2023-11-21T08:07:29;100651.41;;;9.18;91.77
84147;BME280;74267;50.434;7.398;2023-11-21T08:09:56;100660.75;;;9.27;91.26
84147;BME280;74267;50.434;7.398;2023-11-21T08:12:22;100653.47;;;9.29;91.64
84147;BME280;74267;50.434;7.398;2023-11-21T08:14:47;100661.13;;;9.24;91.17
84147;BME280;74267;50.434;7.398;2023-11-21T08:17:13;100655.88;;;9.24;91.85
84147;BME280;74267;50.434;7.398;2023-11-21T08:19:39;100659.38;;;9.37;90.90
84147;BME280;74267;50.434;7.398;2023-11-21T08:22:04;100660.81;;;9.40;91.28
84147;BME280;74267;50.434;7.398;2023-11-21T08:24:32;100660.38;;;9.30;91.46
84147;BME280;74267;50.434;7.398;2023-11-21T08:26:58;100662.16;;;9.23;90.64
84147;BME280;74267;50.434;7.398;2023-11-21T08:29:23;100659.34;;;9.31;91.70
84147;BME280;74267;50.434;7.398;2023-11-21T08:31:49;100666.00;;;9.27;91.29
84147;BME280;74267;50.434;7.398;2023-11-21T08:34:14;100674.94;;;9.39;91.27
84147;BME280;74267;50.434;7.398;2023-11-21T08:36:43;100667.69;;;9.41;90.53
84147;BME280;74267;50.434;7.398;2023-11-21T08:39:09;100666.41;;;9.30;90.77
84147;BME280;74267;50.434;7.398;2023-11-21T08:41:35;100665.22;;;9.33;91.15
84147;BME280;74267;50.434;7.398;2023-11-21T08:44:02;100673.72;;;9.35;90.87
84147;BME280;74267;50.434;7.398;2023-11-21T08:46:27;100668.84;;;9.32;89.90
84147;BME280;74267;50.434;7.398;2023-11-21T08:48:53;100672.94;;;9.41;90.79
84147;BME280;74267;50.434;7.398;2023-11-21T08:51:18;100668.47;;;9.35;90.67
84147;BME280;74267;50.434;7.398;2023-11-21T08:53:44;100674.09;;;9.32;90.13
84147;BME280;74267;50.434;7.398;2023-11-21T08:56:15;100681.47;;;9.49;89.37
84147;BME280;74267;50.434;7.398;2023-11-21T08:58:40;100683.91;;;9.51;90.09
84147;BME280;74267;50.434;7.398;2023-11-21T09:01:06;100673.34;;;9.44;90.25
84147;BME280;74267;50.434;7.398;2023-11-21T09:03:32;100683.84;;;9.38;89.91
84147;BME280;74267;50.434;7.398;2023-11-21T09:06:00;100690.50;;;9.40;90.13
84147;BME280;74267;50.434;7.398;2023-11-21T09:08:25;100694.81;;;9.48;89.50
84147;BME280;74267;50.434;7.398;2023-11-21T09:10:50;100693.00;;;9.48;89.26
84147;BME280;74267;50.434;7.398;2023-11-21T09:13:17;100704.09;;;9.44;89.10
84147;BME280;74267;50.434;7.398;2023-11-21T09:15:43;100709.78;;;9.54;89.48
84147;BME280;74267;50.434;7.398;2023-11-21T09:18:13;100721.50;;;9.51;90.05
84147;BME280;74267;50.434;7.398;2023-11-21T09:20:38;100715.13;;;9.67;90.23
84147;BME280;74267;50.434;7.398;2023-11-21T09:23:03;100712.31;;;9.75;89.45
84147;BME280;74267;50.434;7.398;2023-11-21T09:25:29;100722.44;;;9.78;89.24
84147;BME280;74267;50.434;7.398;2023-11-21T09:27:54;100727.88;;;9.70;88.95
84147;BME280;74267;50.434;7.398;2023-11-21T09:30:19;100735.38;;;9.73;89.53
84147;BME280;74267;50.434;7.398;2023-11-21T09:32:45;100733.38;;;9.81;88.91
84147;BME280;74267;50.434;7.398;2023-11-21T09:35:10;100731.16;;;9.85;88.95
84147;BME280;74267;50.434;7.398;2023-11-21T09:37:36;100722.44;;;9.78;88.01
84147;BME280;74267;50.434;7.398;2023-11-21T09:40:03;100732.56;;;9.87;87.92
84147;BME280;74267;50.434;7.398;2023-11-21T09:42:35;100734.56;;;9.79;88.53
84147;BME280;74267;50.434;7.398;2023-11-21T09:47:43;100747.94;;;9.84;88.84
84147;BME280;74267;50.434;7.398;2023-11-21T09:50:09;100749.16;;;9.88;89.15
84147;BME280;74267;50.434;7.398;2023-11-21T09:55:17;100756.09;;;9.95;88.60
84147;BME280;74267;50.434;7.398;2023-11-21T09:57:46;100754.94;;;10.11;88.86
84147;BME280;74267;50.434;7.398;2023-11-21T10:00:14;100757.34;;;10.06;88.05
84147;BME280;74267;50.434;7.398;2023-11-21T10:02:43;100749.84;;;10.03;87.51
84147;BME280;74267;50.434;7.398;2023-11-21T10:05:08;100756.91;;;10.02;87.53
84147;BME280;74267;50.434;7.398;2023-11-21T10:07:37;100751.31;;;10.12;87.70
84147;BME280;74267;50.434;7.398;2023-11-21T10:10:05;100765.88;;;10.08;87.35
84147;BME280;74267;50.434;7.398;2023-11-21T10:12:32;100759.41;;;10.11;87.28
84147;BME280;74267;50.434;7.398;2023-11-21T10:14:58;100762.38;;;10.01;86.60
84147;BME280;74267;50.434;7.398;2023-11-21T10:17:26;100769.53;;;10.07;87.72
84147;BME280;74267;50.434;7.398;2023-11-21T10:19:56;100767.47;;;10.09;86.84
84147;BME280;74267;50.434;7.398;2023-11-21T10:22:22;100773.22;;;10.32;86.49
84147;BME280;74267;50.434;7.398;2023-11-21T10:24:48;100772.81;;;10.29;86.29
84147;BME280;74267;50.434;7.398;2023-11-21T10:27:13;100780.50;;;10.24;86.25
84147;BME280;74267;50.434;7.398;2023-11-21T10:29:39;100777.63;;;10.12;87.70
84147;BME280;74267;50.434;7.398;2023-11-21T10:32:05;100784.97;;;10.23;87.46
84147;BME280;74267;50.434;7.398;2023-11-21T10:34:30;100787.00;;;10.34;85.89
84147;BME280;74267;50.434;7.398;2023-11-21T10:36:56;100781.13;;;10.32;86.78
84147;BME280;74267;50.434;7.398;2023-11-21T10:39:23;100781.69;;;10.21;87.34
84147;BME280;74267;50.434;7.398;2023-11-21T10:41:49;100778.63;;;10.18;87.62
84147;BME280;74267;50.434;7.398;2023-11-21T10:44:15;100786.97;;;10.21;86.81
84147;BME280;74267;50.434;7.398;2023-11-21T10:46:50;100787.78;;;10.22;86.98
84147;BME280;74267;50.434;7.398;2023-11-21T10:49:20;100784.13;;;10.29;86.14
84147;BME280;74267;50.434;7.398;2023-11-21T10:51:45;100780.88;;;10.14;85.56
84147;BME280;74267;50.434;7.398;2023-11-21T10:54:11;100773.13;;;10.06;87.05
84147;BME280;74267;50.434;7.398;2023-11-21T10:56:39;100784.09;;;10.16;86.50
84147;BME280;74267;50.434;7.398;2023-11-21T10:59:09;100786.78;;;10.29;86.92
84147;BME280;74267;50.434;7.398;2023-11-21T11:01:36;100785.81;;;10.43;85.94
84147;BME280;74267;50.434;7.398;2023-11-21T11:04:04;100787.00;;;10.34;85.70
84147;BME280;74267;50.434;7.398;2023-11-21T11:06:31;100783.38;;;10.42;85.13
84147;BME280;74267;50.434;7.398;2023-11-21T11:08:58;100784.59;;;10.52;85.37
84147;BME280;74267;50.434;7.398;2023-11-21T11:11:25;100775.69;;;10.40;86.09
84147;BME280;74267;50.434;7.398;2023-11-21T11:13:51;100787.84;;;10.41;86.31
84147;BME280;74267;50.434;7.398;2023-11-21T11:16:18;100779.31;;;10.39;84.57
84147;BME280;74267;50.434;7.398;2023-11-21T11:18:44;100777.72;;;10.51;84.50
84147;BME280;74267;50.434;7.398;2023-11-21T11:21:23;100787.84;;;10.48;84.83
84147;BME280;74267;50.434;7.398;2023-11-21T11:24:10;100779.94;;;10.41;84.87
84147;BME280;74267;50.434;7.398;2023-11-21T11:29:40;100776.06;;;10.31;84.88
84147;BME280;74267;50.434;7.398;2023-11-21T11:35:18;100791.91;;;10.50;85.26
84147;BME280;74267;50.434;7.398;2023-11-21T11:37:45;100786.03;;;10.48;85.84
84147;BME280;74267;50.434;7.398;2023-11-21T11:40:11;100782.59;;;10.54;85.66
84147;BME280;74267;50.434;7.398;2023-11-21T11:42:37;100794.13;;;10.40;85.06
84147;BME280;74267;50.434;7.398;2023-11-21T11:45:17;100795.16;;;10.59;85.06
84147;BME280;74267;50.434;7.398;2023-11-21T11:47:42;100793.91;;;10.42;85.04
84147;BME280;74267;50.434;7.398;2023-11-21T11:50:11;100798.75;;;10.38;86.30
84147;BME280;74267;50.434;7.398;2023-11-21T11:52:52;100804.84;;;10.39;85.42
84147;BME280;74267;50.434;7.398;2023-11-21T11:55:21;100809.28;;;10.38;85.62
84147;BME280;74267;50.434;7.398;2023-11-21T11:57:49;100806.84;;;10.37;84.85
84147;BME280;74267;50.434;7.398;2023-11-21T12:02:52;100805.63;;;10.39;86.11
84147;BME280;74267;50.434;7.398;2023-11-21T12:05:21;100802.00;;;10.40;85.63
84147;BME280;74267;50.434;7.398;2023-11-21T12:07:56;100802.41;;;10.37;84.68
84147;BME280;74267;50.434;7.398;2023-11-21T12:10:26;100802.84;;;10.47;85.76
84147;BME280;74267;50.434;7.398;2023-11-21T12:13:06;100803.22;;;10.44;85.21
84147;BME280;74267;50.434;7.398;2023-11-21T12:15:38;100804.06;;;10.45;84.10
84147;BME280;74267;50.434;7.398;2023-11-21T12:18:05;100805.28;;;10.55;84.30
84147;BME280;74267;50.434;7.398;2023-11-21T12:20:31;100806.09;;;10.56;83.68
84147;BME280;74267;50.434;7.398;2023-11-21T12:23:00;100810.16;;;10.58;83.34
84147;BME280;74267;50.434;7.398;2023-11-21T12:25:29;100807.72;;;10.50;83.46
84147;BME280;74267;50.434;7.398;2023-11-21T12:27:57;100810.94;;;10.52;83.64
84147;BME280;74267;50.434;7.398;2023-11-21T12:30:25;100809.75;;;10.55;83.94
84147;BME280;74267;50.434;7.398;2023-11-21T12:32:54;100819.84;;;10.51;83.77
84147;BME280;74267;50.434;7.398;2023-11-21T12:35:27;100821.84;;;10.49;83.61
84147;BME280;74267;50.434;7.398;2023-11-21T12:37:54;100809.13;;;10.46;84.63
84147;BME280;74267;50.434;7.398;2023-11-21T12:40:20;100819.66;;;10.46;83.57
84147;BME280;74267;50.434;7.398;2023-11-21T12:42:57;100824.69;;;10.48;84.45
84147;BME280;74267;50.434;7.398;2023-11-21T12:45:25;100834.63;;;10.46;84.19
84147;BME280;74267;50.434;7.398;2023-11-21T12:47:56;100838.06;;;10.46;84.66
84147;BME280;74267;50.434;7.398;2023-11-21T12:50:26;100836.47;;;10.52;84.53
84147;BME280;74267;50.434;7.398;2023-11-21T12:53:11;100835.66;;;10.51;84.04
84147;BME280;74267;50.434;7.398;2023-11-21T12:55:43;100842.53;;;10.52;83.84
84147;BME280;74267;50.434;7.398;2023-11-21T12:58:15;100832.81;;;10.46;83.79
84147;BME280;74267;50.434;7.398;2023-11-21T13:00:44;100840.53;;;10.54;84.56
84147;BME280;74267;50.434;7.398;2023-11-21T13:03:11;100849.25;;;10.61;83.77
84147;BME280;74267;50.434;7.398;2023-11-21T13:05:39;100848.84;;;10.64;83.75
84147;BME280;74267;50.434;7.398;2023-11-21T13:08:08;100847.44;;;10.62;84.58